createdAt,value
2019-05-03T00:02:09.937Z,96106.22
2019-05-03T00:05:14.681Z,96102.44
2019-05-03T00:08:14.085Z,96101.61
2019-05-03T00:11:09.457Z,96102.07
2019-05-03T00:14:06.139Z,96099.09
2019-05-03T00:17:04.935Z,96098.30
2019-05-03T00:20:02.327Z,96097.48
2019-05-03T00:22:57.228Z,96098.36
2019-05-03T00:25:52.387Z,96092.04
2019-05-03T00:28:51.985Z,96089.95
2019-05-03T00:31:46.688Z,96086.55
2019-05-03T00:34:46.547Z,96084.02
2019-05-03T00:37:43.244Z,96080.20
2019-05-03T00:40:46.333Z,96076.41
2019-05-03T00:43:48.201Z,96083.20
2019-05-03T00:46:45.961Z,96082.38
2019-05-03T00:49:47.772Z,96073.08
2019-05-03T00:52:44.292Z,96078.13
2019-05-03T00:55:42.004Z,96082.38
2019-05-03T00:58:37.640Z,96087.45
2019-05-03T01:01:33.093Z,96083.22
2019-05-03T01:04:34.713Z,96085.78
2019-05-03T01:07:32.013Z,96085.78
2019-05-03T01:10:26.665Z,96084.53
2019-05-03T01:13:23.330Z,96083.30
2019-05-03T01:16:22.872Z,96090.91
2019-05-03T01:19:22.733Z,96080.74
2019-05-03T01:22:24.184Z,96077.38
2019-05-03T01:25:30.070Z,96080.32
2019-05-03T01:28:18.392Z,96087.53
2019-05-03T01:31:15.174Z,96081.59
2019-05-03T01:34:12.486Z,96085.83
2019-05-03T01:37:08.863Z,96090.94
2019-05-03T01:40:04.617Z,96095.14
2019-05-03T01:43:02.152Z,96086.69
2019-05-03T01:45:57.038Z,96088.42
2019-05-03T01:49:18.205Z,96085.93
2019-05-03T01:52:26.939Z,96084.25
2019-05-03T01:55:23.554Z,96082.55
2019-05-03T01:58:21.692Z,96083.02
2019-05-03T02:01:22.196Z,96085.11
2019-05-03T02:04:21.730Z,96090.19
2019-05-03T02:07:18.142Z,96082.59
2019-05-03T02:10:13.880Z,96081.78
2019-05-03T02:13:12.304Z,96086.02
2019-05-03T02:16:07.644Z,96081.83
2019-05-03T02:19:04.277Z,96075.91
2019-05-03T02:22:02.840Z,96080.13
2019-05-03T02:24:57.564Z,96080.13
2019-05-03T02:27:56.359Z,96077.59
2019-05-03T02:30:59.302Z,96069.59
2019-05-03T02:33:55.924Z,96078.47
2019-05-03T02:36:53.803Z,96073.81
2019-05-03T02:39:47.937Z,96073.39
2019-05-03T02:42:46.418Z,96076.36
2019-05-03T02:45:39.629Z,96074.23
2019-05-03T02:48:40.924Z,96070.02
2019-05-03T02:51:36.379Z,96078.50
2019-05-03T02:54:35.121Z,96072.17
2019-05-03T02:57:39.243Z,96073.47
2019-05-03T03:00:56.102Z,96078.13
2019-05-03T03:03:55.824Z,96067.55
2019-05-03T03:06:48.054Z,96067.12
2019-05-03T03:09:45.876Z,96073.88
2019-05-03T03:12:41.817Z,96074.74
2019-05-03T03:15:38.391Z,96071.37
2019-05-03T03:18:36.416Z,96070.94
2019-05-03T03:21:31.367Z,96078.14
2019-05-03T03:24:31.503Z,96076.88
2019-05-03T03:27:26.945Z,96075.59
2019-05-03T03:30:49.288Z,96075.16
2019-05-03T03:33:47.427Z,96074.30
2019-05-03T03:36:58.857Z,96073.07
2019-05-03T03:39:45.573Z,96069.67
2019-05-03T03:42:40.735Z,96069.27
2019-05-03T03:45:37.282Z,96081.51
2019-05-03T03:48:35.344Z,96083.65
2019-05-03T03:51:29.483Z,96086.58
2019-05-03T03:54:26.000Z,96088.69
2019-05-03T03:57:25.104Z,96085.31
2019-05-03T04:00:25.976Z,96084.91
2019-05-03T04:03:21.109Z,96089.55
2019-05-03T04:06:17.655Z,96097.59
2019-05-03T04:09:21.265Z,96101.80
2019-05-03T04:12:22.132Z,96104.75
2019-05-03T04:15:29.474Z,96106.87
2019-05-03T04:18:42.575Z,96108.14
2019-05-03T04:21:39.403Z,96108.55
2019-05-03T04:24:36.868Z,96111.52
2019-05-03T04:27:36.433Z,96119.11
2019-05-03T04:30:31.117Z,96123.77
2019-05-03T04:33:27.743Z,96125.05
2019-05-03T04:36:25.987Z,96130.11
2019-05-03T04:39:20.363Z,96130.09
2019-05-03T04:42:16.867Z,96133.45
2019-05-03T04:45:16.260Z,96134.31
2019-05-03T04:48:10.722Z,96139.39
2019-05-03T04:51:08.366Z,96142.75
2019-05-03T04:54:19.268Z,96140.23
2019-05-03T04:57:26.574Z,96146.98
2019-05-03T05:00:11.883Z,96154.59
2019-05-03T05:03:08.105Z,96160.94
2019-05-03T05:06:06.007Z,96165.56
2019-05-03T05:09:00.470Z,96170.23
2019-05-03T05:11:56.316Z,96165.58
2019-05-03T05:14:56.447Z,96164.75
2019-05-03T05:18:15.952Z,96168.53
2019-05-03T05:21:21.390Z,96165.16
2019-05-03T05:24:20.448Z,96163.02
2019-05-03T05:27:27.819Z,96165.57
2019-05-03T05:30:25.471Z,96172.31
2019-05-03T05:33:30.681Z,96172.33
2019-05-03T05:36:27.535Z,96182.03
2019-05-03T05:39:24.906Z,96181.59
2019-05-03T05:42:21.387Z,96175.64
2019-05-03T05:45:17.221Z,96179.03
2019-05-03T05:48:16.090Z,96179.88
2019-05-03T05:51:13.576Z,96183.25
2019-05-03T05:54:08.645Z,96177.33
2019-05-03T05:57:18.193Z,96182.37
2019-05-03T06:00:18.139Z,96184.05
2019-05-03T06:03:15.055Z,96185.69
2019-05-03T06:06:09.633Z,96187.39
2019-05-03T06:09:11.237Z,96198.33
2019-05-03T06:12:32.176Z,96200.84
2019-05-03T06:15:41.672Z,96209.71
2019-05-03T06:18:54.926Z,96209.31
2019-05-03T06:22:10.755Z,96212.69
2019-05-03T06:25:11.754Z,96202.59
2019-05-03T06:28:17.323Z,96218.23
2019-05-03T06:31:14.897Z,96219.51
2019-05-03T06:34:10.239Z,96215.30
2019-05-03T06:37:06.800Z,96222.90
2019-05-03T06:40:05.800Z,96222.02
2019-05-03T06:43:08.375Z,96215.20
2019-05-03T06:45:55.424Z,96219.87
2019-05-03T06:48:51.202Z,96220.28
2019-05-03T06:51:49.847Z,96221.09
2019-05-03T06:54:45.042Z,96220.67
2019-05-03T06:57:45.561Z,96214.69
2019-05-03T07:00:52.878Z,96217.59
2019-05-03T07:04:16.522Z,96222.66
2019-05-03T07:07:18.150Z,96223.02
2019-05-03T07:10:18.148Z,96214.07
2019-05-03T07:13:15.692Z,96218.27
2019-05-03T07:16:11.431Z,96212.27
2019-05-03T07:19:08.143Z,96211.30
2019-05-03T07:22:05.125Z,96210.40
2019-05-03T07:25:01.181Z,96218.79
2019-05-03T07:27:57.646Z,96220.66
2019-05-03T07:30:55.250Z,96220.23
2019-05-03T07:33:56.003Z,96221.47
2019-05-03T07:36:57.718Z,96222.38
2019-05-03T07:39:55.656Z,96221.17
2019-05-03T07:42:52.124Z,96217.42
2019-05-03T07:45:48.729Z,96218.31
2019-05-03T07:48:45.682Z,96220.41
2019-05-03T07:51:40.650Z,96224.15
2019-05-03T07:54:36.401Z,96219.91
2019-05-03T07:57:45.300Z,96225.42
2019-05-03T08:00:40.287Z,96219.94
2019-05-03T08:03:41.271Z,96216.55
2019-05-03T08:06:44.662Z,96222.50
2019-05-03T08:09:39.857Z,96233.51
2019-05-03T08:12:37.533Z,96238.19
2019-05-03T08:15:32.311Z,96240.36
2019-05-03T08:18:28.951Z,96238.74
2019-05-03T08:21:25.277Z,96239.70
2019-05-03T08:24:29.759Z,96242.30
2019-05-03T08:27:26.543Z,96241.41
2019-05-03T08:30:25.642Z,96249.03
2019-05-03T08:33:35.511Z,96249.03
2019-05-03T08:36:29.976Z,96247.28
2019-05-03T08:39:26.794Z,96252.34
2019-05-03T08:42:35.162Z,96252.39
2019-05-03T08:45:29.735Z,96259.59
2019-05-03T08:48:27.237Z,96253.23
2019-05-03T08:51:24.826Z,96257.44
2019-05-03T08:54:20.258Z,96253.14
2019-05-03T08:57:15.972Z,96252.30
2019-05-03T09:00:14.425Z,96250.17
2019-05-03T09:03:10.309Z,96257.27
2019-05-03T09:06:05.953Z,96259.38
2019-05-03T09:09:04.684Z,96258.87
2019-05-03T09:11:58.463Z,96263.09
2019-05-03T09:14:56.196Z,96262.16
2019-05-03T09:17:51.687Z,96251.45
2019-05-03T09:20:48.521Z,96249.27
2019-05-03T09:23:45.303Z,96246.70
2019-05-03T09:26:45.407Z,96246.22
2019-05-03T09:29:44.033Z,96241.56
2019-05-03T09:32:38.798Z,96245.86
2019-05-03T09:35:45.124Z,96243.31
2019-05-03T09:38:45.766Z,96239.17
2019-05-03T09:41:42.165Z,96243.84
2019-05-03T09:44:38.731Z,96244.20
2019-05-03T09:47:35.575Z,96244.19
2019-05-03T09:50:36.565Z,96242.48
2019-05-03T09:53:42.238Z,96247.55
2019-05-03T09:56:55.890Z,96250.83
2019-05-03T09:59:56.148Z,96250.39
2019-05-03T10:02:42.295Z,96241.45
2019-05-03T10:05:38.918Z,96246.53
2019-05-03T10:08:35.921Z,96243.71
2019-05-03T10:11:31.553Z,96249.69
2019-05-03T10:14:27.908Z,96248.47
2019-05-03T10:17:36.281Z,96249.38
2019-05-03T10:20:32.526Z,96243.48
2019-05-03T10:23:42.054Z,96248.20
2019-05-03T10:26:38.772Z,96235.93
2019-05-03T10:29:36.641Z,96239.26
2019-05-03T10:32:40.766Z,96238.30
2019-05-03T10:35:39.252Z,96240.66
2019-05-03T10:38:35.260Z,96239.20
2019-05-03T10:41:31.882Z,96241.11
2019-05-03T10:44:28.686Z,96239.25
2019-05-03T10:47:25.508Z,96229.33
2019-05-03T10:50:20.971Z,96220.59
2019-05-03T10:53:20.464Z,96226.22
2019-05-03T10:56:29.507Z,96221.25
2019-05-03T10:59:25.247Z,96224.34
2019-05-03T11:02:38.419Z,96221.49
2019-05-03T11:05:35.056Z,96212.92
2019-05-03T11:08:32.036Z,96213.72
2019-05-03T11:11:27.733Z,96217.23
2019-05-03T11:14:25.356Z,96220.27
2019-05-03T11:17:19.530Z,96212.45
2019-05-03T11:20:28.221Z,96219.52
2019-05-03T11:23:14.488Z,96231.25
2019-05-03T11:26:10.299Z,96246.11
2019-05-03T11:29:06.923Z,96262.30
2019-05-03T11:32:12.399Z,96262.02
2019-05-03T11:35:35.115Z,96263.22
2019-05-03T11:38:37.422Z,96268.86
2019-05-03T11:41:33.001Z,96261.74
2019-05-03T11:44:41.928Z,96273.17
2019-05-03T11:47:37.725Z,96270.59
2019-05-03T11:50:35.531Z,96267.63
2019-05-03T11:53:31.131Z,96275.21
2019-05-03T11:56:28.999Z,96278.58
2019-05-03T11:59:26.454Z,96270.09
2019-05-03T12:02:33.037Z,96268.38
2019-05-03T12:05:40.160Z,96266.67
2019-05-03T12:08:37.097Z,96266.55
2019-05-03T12:11:45.914Z,96273.69
2019-05-03T12:14:45.323Z,96274.82
2019-05-03T12:17:50.694Z,96266.34
2019-05-03T12:20:37.451Z,96263.81
2019-05-03T12:23:32.032Z,96265.91
2019-05-03T12:26:40.797Z,96262.89
2019-05-03T12:29:24.590Z,96265.77
2019-05-03T12:32:26.606Z,96262.72
2019-05-03T12:35:24.706Z,96263.00
2019-05-03T12:38:19.927Z,96258.48
2019-05-03T12:41:16.453Z,96253.72
2019-05-03T12:44:12.057Z,96250.02
2019-05-03T12:47:09.899Z,96238.69
2019-05-03T12:50:05.780Z,96237.52
2019-05-03T12:53:04.541Z,96226.72
2019-05-03T12:55:59.024Z,96232.17
2019-05-03T12:59:07.168Z,96223.34
2019-05-03T13:02:09.167Z,96228.75
2019-05-03T13:05:08.940Z,96217.59
2019-05-03T13:08:18.853Z,96227.92
2019-05-03T13:11:15.790Z,96220.05
2019-05-03T13:14:11.355Z,96223.17
2019-05-03T13:17:11.301Z,96227.58
2019-05-03T13:20:05.002Z,96221.70
2019-05-03T13:23:01.447Z,96216.64
2019-05-03T13:25:57.682Z,96217.27
2019-05-03T13:28:55.328Z,96219.53
2019-05-03T13:32:01.274Z,96212.16
2019-05-03T13:34:47.941Z,96210.00
2019-05-03T13:37:45.457Z,96200.63
2019-05-03T13:40:41.931Z,96200.46
2019-05-03T13:43:38.036Z,96196.52
2019-05-03T13:46:35.129Z,96192.80
2019-05-03T13:49:28.988Z,96186.26
2019-05-03T13:52:25.774Z,96183.92
2019-05-03T13:55:21.627Z,96177.29
2019-05-03T13:58:19.409Z,96173.92
2019-05-03T14:01:22.331Z,96173.45
2019-05-03T14:04:19.220Z,96169.77
2019-05-03T14:07:17.122Z,96166.33
2019-05-03T14:10:12.528Z,96166.36
2019-05-03T14:13:09.564Z,96163.91
2019-05-03T14:16:05.530Z,96164.17
2019-05-03T14:19:01.407Z,96161.20
2019-05-03T14:21:59.732Z,96163.84
2019-05-03T14:24:57.690Z,96163.45
2019-05-03T14:27:54.939Z,96165.63
2019-05-03T14:30:58.312Z,96167.45
2019-05-03T14:34:06.014Z,96162.89
2019-05-03T14:37:00.888Z,96169.30
2019-05-03T14:39:59.101Z,96170.88
2019-05-03T14:42:55.507Z,96171.09
2019-05-03T14:45:57.512Z,96165.06
2019-05-03T14:48:55.082Z,96167.00
2019-05-03T14:51:50.680Z,96169.30
2019-05-03T14:54:47.173Z,96165.05
2019-05-03T14:57:45.503Z,96166.72
2019-05-03T15:00:55.318Z,96165.60
2019-05-03T15:03:51.074Z,96161.70
2019-05-03T15:06:48.825Z,96166.87
2019-05-03T15:09:46.469Z,96160.44
2019-05-03T15:12:42.365Z,96162.41
2019-05-03T15:15:38.960Z,96158.80
2019-05-03T15:18:34.810Z,96153.63
2019-05-03T15:21:31.946Z,96144.16
2019-05-03T15:24:27.865Z,96141.56
2019-05-03T15:27:24.992Z,96144.23
2019-05-03T15:30:22.443Z,96138.58
2019-05-03T15:33:19.284Z,96141.31
2019-05-03T15:36:15.958Z,96147.45
2019-05-03T15:39:12.252Z,96137.73
2019-05-03T15:42:07.991Z,96151.58
2019-05-03T15:45:18.537Z,96144.19
2019-05-03T15:48:24.665Z,96153.11
2019-05-03T15:51:20.910Z,96146.86
2019-05-03T15:54:16.494Z,96149.03
2019-05-03T15:57:14.492Z,96149.30
2019-05-03T16:00:09.538Z,96147.47
2019-05-03T16:03:11.466Z,96143.99
2019-05-03T16:06:15.324Z,96146.72
2019-05-03T16:09:10.210Z,96154.91
2019-05-03T16:12:06.940Z,96150.26
2019-05-03T16:15:04.712Z,96150.19
2019-05-03T16:17:59.976Z,96150.26
2019-05-03T16:20:56.835Z,96152.13
2019-05-03T16:23:55.330Z,96152.29
2019-05-03T16:27:05.198Z,96158.31
2019-05-03T16:30:01.565Z,96155.03
2019-05-03T16:32:58.421Z,96161.90
2019-05-03T16:35:54.918Z,96169.67
2019-05-03T16:38:50.989Z,96172.25
2019-05-03T16:41:46.551Z,96161.75
2019-05-03T16:44:44.440Z,96161.41
2019-05-03T16:47:40.974Z,96172.66
2019-05-03T16:50:38.863Z,96166.94
2019-05-03T16:53:35.620Z,96170.92
2019-05-03T16:56:31.462Z,96165.61
2019-05-03T16:59:28.176Z,96157.14
2019-05-03T17:02:25.897Z,96158.02
2019-05-03T17:05:29.594Z,96163.69
2019-05-03T17:08:34.579Z,96161.61
2019-05-03T17:11:28.500Z,96165.08
2019-05-03T17:14:25.469Z,96172.74
2019-05-03T17:17:21.019Z,96169.38
2019-05-03T17:20:17.109Z,96161.86
2019-05-03T17:23:15.433Z,96168.70
2019-05-03T17:26:11.461Z,96172.60
2019-05-03T17:29:08.287Z,96180.73
2019-05-03T17:32:04.946Z,96186.29
2019-05-03T17:35:00.759Z,96185.00
2019-05-03T17:37:57.365Z,96185.48
2019-05-03T17:41:12.057Z,96183.39
2019-05-03T17:44:15.138Z,96185.14
2019-05-03T17:47:11.913Z,96187.30
2019-05-03T17:50:09.541Z,96186.96
2019-05-03T17:53:14.825Z,96190.42
2019-05-03T17:56:24.445Z,96187.92
2019-05-03T17:59:27.512Z,96191.80
2019-05-03T18:02:37.622Z,96188.90
2019-05-03T18:05:56.639Z,96188.95
2019-05-03T18:09:04.460Z,96195.80
2019-05-03T18:12:04.958Z,96192.44
2019-05-03T18:15:00.619Z,96196.30
2019-05-03T18:17:56.085Z,96201.00
2019-05-03T18:20:55.478Z,96201.52
2019-05-03T18:23:54.625Z,96201.09
2019-05-03T18:26:50.894Z,96210.47
2019-05-03T18:29:47.404Z,96213.90
2019-05-03T18:32:45.164Z,96219.03
2019-05-03T18:35:39.762Z,96219.08
2019-05-03T18:38:39.508Z,96222.47
2019-05-03T18:41:36.293Z,96218.24
2019-05-03T18:44:45.406Z,96224.20
2019-05-03T18:47:42.046Z,96230.16
2019-05-03T18:50:39.985Z,96228.48
2019-05-03T18:53:35.028Z,96236.13
2019-05-03T18:56:31.662Z,96241.25
2019-05-03T18:59:27.573Z,96242.08
2019-05-03T19:02:25.094Z,96246.35
2019-05-03T19:05:20.544Z,96245.52
2019-05-03T19:08:47.911Z,96251.02
2019-05-03T19:11:58.399Z,96254.39
2019-05-03T19:14:54.687Z,96249.31
2019-05-03T19:17:59.364Z,96243.80
2019-05-03T19:20:55.247Z,96246.36
2019-05-03T19:23:53.025Z,96238.77
2019-05-03T19:26:49.837Z,96238.77
2019-05-03T19:29:45.693Z,96246.38
2019-05-03T19:32:41.662Z,96244.73
2019-05-03T19:35:37.351Z,96248.11
2019-05-03T19:38:36.895Z,96241.38
2019-05-03T19:41:34.453Z,96242.63
2019-05-03T19:44:30.765Z,96251.55
2019-05-03T19:47:31.864Z,96251.55
2019-05-03T19:50:27.479Z,96251.14
2019-05-03T19:53:29.844Z,96249.45
2019-05-03T19:56:25.828Z,96250.75
2019-05-03T19:59:21.920Z,96250.77
2019-05-03T20:02:45.398Z,96252.47
2019-05-03T20:05:50.319Z,96249.10
2019-05-03T20:08:54.439Z,96249.53
2019-05-03T20:11:49.965Z,96266.86
2019-05-03T20:14:50.976Z,96260.97
2019-05-03T20:17:56.520Z,96261.80
2019-05-03T20:20:47.763Z,96263.50
2019-05-03T20:23:47.176Z,96261.83
2019-05-03T20:26:42.117Z,96261.41
2019-05-03T20:29:40.076Z,96260.14
2019-05-03T20:32:36.675Z,96267.75
2019-05-03T20:35:35.501Z,96261.84
2019-05-03T20:38:35.873Z,96264.41
2019-05-03T20:41:35.138Z,96259.34
2019-05-03T20:44:44.763Z,96270.31
2019-05-03T20:47:45.372Z,96253.01
2019-05-03T20:50:41.281Z,96255.11
2019-05-03T20:53:37.806Z,96251.73
2019-05-03T20:56:34.453Z,96253.85
2019-05-03T20:59:42.107Z,96255.98
2019-05-03T21:02:26.274Z,96259.36
2019-05-03T21:05:30.452Z,96261.49
2019-05-03T21:08:20.936Z,96265.28
2019-05-03T21:11:17.553Z,96261.92
2019-05-03T21:14:15.286Z,96261.92
2019-05-03T21:17:22.971Z,96258.53
2019-05-03T21:20:25.318Z,96258.94
2019-05-03T21:23:34.409Z,96261.07
2019-05-03T21:26:30.451Z,96254.29
2019-05-03T21:29:26.317Z,96247.53
2019-05-03T21:32:25.035Z,96253.05
2019-05-03T21:35:20.645Z,96257.70
2019-05-03T21:38:16.603Z,96254.73
2019-05-03T21:41:15.480Z,96251.80
2019-05-03T21:44:09.115Z,96253.48
2019-05-03T21:47:05.766Z,96260.25
2019-05-03T21:50:01.391Z,96250.94
2019-05-03T21:52:58.021Z,96249.27
2019-05-03T21:55:54.640Z,96251.37
2019-05-03T21:58:51.536Z,96248.41
2019-05-03T22:01:49.763Z,96251.80
2019-05-03T22:04:46.289Z,96250.97
2019-05-03T22:07:44.682Z,96250.13
2019-05-03T22:10:40.035Z,96251.78
2019-05-03T22:13:36.924Z,96246.72
2019-05-03T22:16:55.385Z,96249.69
2019-05-03T22:19:49.975Z,96252.61
2019-05-03T22:22:55.851Z,96250.05
2019-05-03T22:25:54.308Z,96247.53
2019-05-03T22:28:50.205Z,96247.95
2019-05-03T22:31:45.360Z,96245.39
2019-05-03T22:34:42.838Z,96244.14
2019-05-03T22:37:39.661Z,96239.91
2019-05-03T22:40:35.418Z,96237.36
2019-05-03T22:43:31.409Z,96233.94
2019-05-03T22:46:26.900Z,96226.36
2019-05-03T22:49:23.466Z,96228.00
2019-05-03T22:52:19.122Z,96224.21
2019-05-03T22:55:21.019Z,96224.18
2019-05-03T22:58:18.525Z,96227.53
2019-05-03T23:01:16.491Z,96223.73
2019-05-03T23:04:12.062Z,96216.11
2019-05-03T23:07:07.612Z,96213.58
2019-05-03T23:10:04.367Z,96209.38
2019-05-03T23:12:59.682Z,96209.38
2019-05-03T23:15:56.307Z,96211.88
2019-05-03T23:18:54.821Z,96208.93
2019-05-03T23:21:54.420Z,96205.95
2019-05-03T23:24:50.958Z,96203.39
2019-05-03T23:27:45.835Z,96197.06
2019-05-03T23:30:42.583Z,96194.08
2019-05-03T23:33:39.142Z,96194.08
2019-05-03T23:36:36.406Z,96188.98
2019-05-03T23:39:32.240Z,96182.66
2019-05-03T23:42:34.926Z,96182.22
2019-05-03T23:45:25.647Z,96175.48
2019-05-03T23:48:20.447Z,96174.18
2019-05-03T23:51:18.421Z,96166.59
2019-05-03T23:54:15.095Z,96162.76
2019-05-03T23:57:10.544Z,96163.16
